createdAt,value
2022-12-23T00:00:42.004Z,100102.59
2022-12-23T00:03:08.861Z,100107.41
2022-12-23T00:05:39.602Z,100102.28
2022-12-23T00:08:07.563Z,100094.78
2022-12-23T00:10:35.219Z,100086.09
2022-12-23T00:13:20.647Z,100084.75
2022-12-23T00:15:47.360Z,100077.94
2022-12-23T00:18:14.799Z,100082.84
2022-12-23T00:20:41.471Z,100068.09
2022-12-23T00:23:08.162Z,100068.38
2022-12-23T00:25:41.212Z,100070.19
2022-12-23T00:28:10.349Z,100062.03
2022-12-23T00:30:38.299Z,100066.75
2022-12-23T00:33:08.173Z,100053.06
2022-12-23T00:35:34.822Z,100051.81
2022-12-23T00:38:01.477Z,100056.09
2022-12-23T00:40:46.840Z,100061.84
2022-12-23T00:43:13.455Z,100064.09
2022-12-23T00:45:40.118Z,100063.41
2022-12-23T00:48:25.481Z,100062.84
2022-12-23T00:50:53.389Z,100068.78
2022-12-23T00:53:21.108Z,100065.59
2022-12-23T00:55:48.029Z,100060.31
2022-12-23T00:58:15.919Z,100062.16
2022-12-23T01:01:01.820Z,100063.94
2022-12-23T01:03:47.825Z,100061.88
2022-12-23T01:06:14.737Z,100058.69
2022-12-23T01:08:41.887Z,100055.09
2022-12-23T01:11:10.396Z,100055.03
2022-12-23T01:13:37.871Z,100050.47
2022-12-23T01:16:14.985Z,100045.94
2022-12-23T01:18:44.113Z,100044.34
2022-12-23T01:21:13.902Z,100038.69
2022-12-23T01:23:40.993Z,100044.75
2022-12-23T01:26:08.554Z,100041.28
2022-12-23T01:28:35.893Z,100042.78
2022-12-23T01:31:04.749Z,100051.13
2022-12-23T01:33:32.432Z,100035.31
2022-12-23T01:36:00.459Z,100039.31
2022-12-23T01:38:27.137Z,100040.50
2022-12-23T01:40:53.824Z,100034.09
2022-12-23T01:43:20.719Z,100042.31
2022-12-23T01:45:47.523Z,100037.63
2022-12-23T01:48:23.833Z,100031.63
2022-12-23T01:50:58.303Z,100031.47
2022-12-23T01:53:40.640Z,100013.72
2022-12-23T01:56:37.147Z,100016.19
2022-12-23T01:59:09.432Z,100021.00
2022-12-23T02:01:54.871Z,100008.97
2022-12-23T02:04:24.490Z,100006.28
2022-12-23T02:07:10.274Z,100004.16
2022-12-23T02:09:38.793Z,99996.78
2022-12-23T02:12:36.559Z,99999.38
2022-12-23T02:15:31.512Z,99999.13
2022-12-23T02:18:33.028Z,100000.53
2022-12-23T02:21:08.855Z,99997.75
2022-12-23T02:24:28.965Z,99984.34
2022-12-23T02:27:12.283Z,99977.50
2022-12-23T02:30:03.394Z,99979.97
2022-12-23T02:32:59.063Z,99981.63
2022-12-23T02:35:43.357Z,99973.97
2022-12-23T02:38:30.946Z,99974.03
2022-12-23T02:41:18.393Z,99967.44
2022-12-23T02:44:01.992Z,99965.94
2022-12-23T02:46:37.069Z,99957.66
2022-12-23T02:49:11.108Z,99954.94
2022-12-23T02:51:41.607Z,99955.72
2022-12-23T02:54:11.820Z,99960.22
2022-12-23T02:56:40.220Z,99958.41
2022-12-23T02:59:12.489Z,99951.44
2022-12-23T03:01:40.021Z,99958.03
2022-12-23T03:04:07.084Z,99948.31
2022-12-23T03:06:38.701Z,99948.88
2022-12-23T03:09:05.389Z,99940.03
2022-12-23T03:11:51.727Z,99946.13
2022-12-23T03:14:27.515Z,99938.13
2022-12-23T03:17:12.986Z,99935.94
2022-12-23T03:19:57.879Z,99931.72
2022-12-23T03:22:30.179Z,99934.66
2022-12-23T03:25:17.024Z,99943.97
2022-12-23T03:27:47.263Z,99929.25
2022-12-23T03:30:16.209Z,99935.63
2022-12-23T03:32:55.790Z,99919.72
2022-12-23T03:35:45.842Z,99919.41
2022-12-23T03:38:13.290Z,99916.31
2022-12-23T03:40:43.686Z,99915.50
2022-12-23T03:43:19.741Z,99916.47
2022-12-23T03:45:52.931Z,99919.84
2022-12-23T03:48:33.970Z,99916.97
2022-12-23T03:51:05.836Z,99919.00
2022-12-23T03:53:39.271Z,99914.31
2022-12-23T03:56:09.083Z,99913.66
2022-12-23T03:58:47.629Z,99922.06
2022-12-23T04:01:35.597Z,99910.19
2022-12-23T04:04:16.827Z,99914.47
2022-12-23T04:07:00.870Z,99902.22
2022-12-23T04:09:29.185Z,99903.47
2022-12-23T04:11:56.937Z,99901.53
2022-12-23T04:14:23.606Z,99902.66
2022-12-23T04:16:55.662Z,99888.56
2022-12-23T04:19:22.350Z,99882.03
2022-12-23T04:21:49.026Z,99886.72
2022-12-23T04:24:15.713Z,99894.28
2022-12-23T04:26:42.374Z,99891.56
2022-12-23T04:29:09.075Z,99893.22
2022-12-23T04:31:35.764Z,99886.72
2022-12-23T04:34:02.441Z,99904.69
2022-12-23T04:36:29.132Z,99901.06
2022-12-23T04:38:55.784Z,99898.66
2022-12-23T04:41:22.852Z,99900.94
2022-12-23T04:43:52.969Z,99892.78
2022-12-23T04:46:20.549Z,99895.53
2022-12-23T04:48:47.335Z,99886.72
2022-12-23T04:51:13.984Z,99890.97
2022-12-23T04:53:40.691Z,99885.78
2022-12-23T04:56:10.372Z,99889.09
2022-12-23T04:58:37.051Z,99898.75
2022-12-23T05:01:09.046Z,99892.78
2022-12-23T05:03:35.959Z,99902.34
2022-12-23T05:06:03.259Z,99892.59
2022-12-23T05:08:30.414Z,99899.44
2022-12-23T05:10:57.386Z,99892.88
2022-12-23T05:13:24.538Z,99899.44
2022-12-23T05:15:53.110Z,99897.97
2022-12-23T05:18:20.323Z,99904.69
2022-12-23T05:20:47.036Z,99892.06
2022-12-23T05:23:13.752Z,99883.78
2022-12-23T05:25:40.608Z,99890.31
2022-12-23T05:28:08.220Z,99885.13
2022-12-23T05:30:34.860Z,99884.81
2022-12-23T05:33:01.583Z,99877.59
2022-12-23T05:35:28.277Z,99876.25
2022-12-23T05:37:54.913Z,99885.09
2022-12-23T05:40:29.357Z,99880.16
2022-12-23T05:42:59.800Z,99878.41
2022-12-23T05:45:26.614Z,99879.16
2022-12-23T05:47:53.395Z,99884.00
2022-12-23T05:50:20.079Z,99883.72
2022-12-23T05:52:48.566Z,99892.44
2022-12-23T05:55:15.323Z,99885.19
2022-12-23T05:57:42.008Z,99890.63
2022-12-23T06:00:09.791Z,99886.72
2022-12-23T06:02:39.430Z,99890.84
2022-12-23T06:05:06.443Z,99887.63
2022-12-23T06:07:33.086Z,99900.94
2022-12-23T06:09:59.752Z,99905.38
2022-12-23T06:12:26.407Z,99908.56
2022-12-23T06:14:53.087Z,99912.19
2022-12-23T06:17:19.845Z,99912.25
2022-12-23T06:19:47.586Z,99922.31
2022-12-23T06:22:14.440Z,99923.13
2022-12-23T06:24:41.127Z,99924.69
2022-12-23T06:27:07.805Z,99920.84
2022-12-23T06:29:34.503Z,99929.84
2022-12-23T06:32:01.262Z,99935.09
2022-12-23T06:34:28.190Z,99933.84
2022-12-23T06:36:54.812Z,99935.94
2022-12-23T06:39:21.585Z,99935.56
2022-12-23T06:41:51.325Z,99935.22
2022-12-23T06:44:18.245Z,99934.44
2022-12-23T06:46:44.973Z,99952.69
2022-12-23T06:49:13.680Z,99954.31
2022-12-23T06:51:41.208Z,99957.34
2022-12-23T06:54:10.784Z,99967.47
2022-12-23T06:56:37.592Z,99977.53
2022-12-23T06:59:04.253Z,99989.50
2022-12-23T07:01:34.102Z,99987.28
2022-12-23T07:04:02.002Z,99983.22
2022-12-23T07:06:28.833Z,99995.56
2022-12-23T07:08:55.452Z,99995.41
2022-12-23T07:11:22.081Z,99997.28
2022-12-23T07:13:49.047Z,99992.94
2022-12-23T07:16:15.854Z,100005.28
2022-12-23T07:18:42.608Z,100003.38
2022-12-23T07:21:19.687Z,99999.13
2022-12-23T07:23:51.335Z,99998.97
2022-12-23T07:26:18.065Z,99993.25
2022-12-23T07:28:48.858Z,99995.00
2022-12-23T07:31:15.617Z,100006.88
2022-12-23T07:33:42.670Z,100004.84
2022-12-23T07:36:09.874Z,100012.19
2022-12-23T07:38:36.542Z,100013.13
2022-12-23T07:41:03.291Z,100016.25
2022-12-23T07:43:29.980Z,100018.97
2022-12-23T07:46:07.645Z,100027.91
2022-12-23T07:48:34.422Z,100023.09
2022-12-23T07:51:02.462Z,100023.41
2022-12-23T07:53:29.587Z,100032.59
2022-12-23T07:55:56.921Z,100028.88
2022-12-23T07:58:24.144Z,100033.19
2022-12-23T08:00:50.812Z,100028.97
2022-12-23T08:03:17.572Z,100024.63
2022-12-23T08:05:44.423Z,100025.19
2022-12-23T08:08:12.001Z,100031.41
2022-12-23T08:10:44.479Z,100035.38
2022-12-23T08:13:14.605Z,100048.50
2022-12-23T08:15:41.331Z,100041.50
2022-12-23T08:18:07.951Z,100043.75
2022-12-23T08:20:34.579Z,100046.13
2022-12-23T08:23:01.333Z,100054.22
2022-12-23T08:25:28.143Z,100055.28
2022-12-23T08:27:54.769Z,100047.78
2022-12-23T08:30:21.400Z,100048.66
2022-12-23T08:32:49.198Z,100048.44
2022-12-23T08:35:15.898Z,100050.09
2022-12-23T08:37:42.568Z,100040.03
2022-12-23T08:40:09.856Z,100044.97
2022-12-23T08:42:36.806Z,100048.75
2022-12-23T08:45:03.602Z,100051.63
2022-12-23T08:47:30.194Z,100065.38
2022-12-23T08:49:56.869Z,100073.78
2022-12-23T08:52:23.609Z,100061.28
2022-12-23T08:54:50.351Z,100065.44
2022-12-23T08:57:18.015Z,100080.50
2022-12-23T08:59:44.699Z,100078.88
2022-12-23T09:02:11.931Z,100088.06
2022-12-23T09:04:38.842Z,100077.03
2022-12-23T09:07:08.744Z,100080.63
2022-12-23T09:09:37.611Z,100088.84
2022-12-23T09:12:04.702Z,100087.00
2022-12-23T09:14:31.320Z,100089.28
2022-12-23T09:16:57.942Z,100106.06
2022-12-23T09:19:24.601Z,100107.72
2022-12-23T09:21:51.254Z,100111.38
2022-12-23T09:24:17.894Z,100124.97
2022-12-23T09:26:44.771Z,100118.63
2022-12-23T09:29:11.410Z,100116.84
2022-12-23T09:31:38.257Z,100125.16
2022-12-23T09:34:11.008Z,100134.06
2022-12-23T09:36:37.986Z,100141.72
2022-12-23T09:39:04.776Z,100150.28
2022-12-23T09:41:43.708Z,100152.94
2022-12-23T09:44:35.268Z,100156.44
2022-12-23T09:47:05.336Z,100165.56
2022-12-23T09:49:32.576Z,100172.53
2022-12-23T09:52:03.122Z,100169.72
2022-12-23T09:54:41.951Z,100178.72
2022-12-23T09:57:21.966Z,100181.38
2022-12-23T10:00:03.966Z,100182.56
2022-12-23T10:02:42.465Z,100182.31
2022-12-23T10:05:29.976Z,100179.16
2022-12-23T10:08:04.242Z,100180.06
2022-12-23T10:10:34.885Z,100181.63
2022-12-23T10:13:04.258Z,100170.19
2022-12-23T10:15:47.414Z,100176.75
2022-12-23T10:18:26.281Z,100174.34
2022-12-23T10:21:06.017Z,100176.59
2022-12-23T10:23:38.448Z,100174.94
2022-12-23T10:26:15.065Z,100180.13
2022-12-23T10:28:41.642Z,100175.03
2022-12-23T10:31:39.153Z,100173.56
2022-12-23T10:34:18.623Z,100165.50
2022-12-23T10:36:53.251Z,100168.50
2022-12-23T10:39:37.259Z,100154.16
2022-12-23T10:42:08.869Z,100155.91
2022-12-23T10:44:54.159Z,100152.72
2022-12-23T10:47:35.932Z,100163.47
2022-12-23T10:50:34.880Z,100166.63
2022-12-23T10:53:05.083Z,100162.69
2022-12-23T10:55:35.221Z,100168.44
2022-12-23T10:58:14.816Z,100187.97
2022-12-23T11:00:44.866Z,100180.69
2022-12-23T11:03:23.592Z,100186.66
2022-12-23T11:05:52.367Z,100172.22
2022-12-23T11:08:21.471Z,100178.72
2022-12-23T11:10:48.555Z,100178.19
2022-12-23T11:13:35.626Z,100182.78
2022-12-23T11:16:26.958Z,100192.56
2022-12-23T11:19:06.089Z,100183.09
2022-12-23T11:21:33.822Z,100187.28
2022-12-23T11:24:19.709Z,100192.31
2022-12-23T11:26:48.410Z,100191.63
2022-12-23T11:29:22.924Z,100191.84
2022-12-23T11:31:49.952Z,100190.97
2022-12-23T11:34:19.378Z,100185.03
2022-12-23T11:37:01.852Z,100201.91
2022-12-23T11:39:35.752Z,100205.88
2022-12-23T11:42:12.848Z,100202.88
2022-12-23T11:44:42.561Z,100198.88
2022-12-23T11:47:30.856Z,100212.44
2022-12-23T11:49:59.480Z,100216.56
2022-12-23T11:52:29.067Z,100216.19
2022-12-23T11:54:57.669Z,100228.47
2022-12-23T11:57:39.289Z,100226.63
2022-12-23T12:00:08.610Z,100232.53
2022-12-23T12:02:41.991Z,100232.78
2022-12-23T12:05:21.347Z,100229.84
2022-12-23T12:07:48.863Z,100225.16
2022-12-23T12:10:26.628Z,100233.53
2022-12-23T12:13:05.827Z,100233.06
2022-12-23T12:15:44.276Z,100235.84
2022-12-23T12:18:16.276Z,100234.38
2022-12-23T12:20:49.146Z,100227.69
2022-12-23T12:23:25.734Z,100222.00
2022-12-23T12:26:00.027Z,100216.53
2022-12-23T12:28:34.943Z,100215.09
2022-12-23T12:31:23.604Z,100210.31
2022-12-23T12:34:01.386Z,100208.84
2022-12-23T12:37:11.525Z,100205.94
2022-12-23T12:39:43.597Z,100208.97
2022-12-23T12:42:17.772Z,100198.72
2022-12-23T12:45:05.644Z,100201.50
2022-12-23T12:47:54.202Z,100206.44
2022-12-23T12:50:29.464Z,100204.88
2022-12-23T12:53:00.748Z,100199.66
2022-12-23T12:55:33.732Z,100203.13
2022-12-23T12:58:02.805Z,100212.09
2022-12-23T13:00:30.630Z,100203.88
2022-12-23T13:03:12.290Z,100208.84
2022-12-23T13:05:53.405Z,100210.94
2022-12-23T13:08:42.277Z,100207.03
2022-12-23T13:11:33.813Z,100206.44
2022-12-23T13:14:22.279Z,100197.88
2022-12-23T13:17:08.814Z,100192.00
2022-12-23T13:19:47.134Z,100194.41
2022-12-23T13:22:18.515Z,100194.75
2022-12-23T13:25:04.233Z,100192.22
2022-12-23T13:27:41.079Z,100185.72
2022-12-23T13:30:14.448Z,100181.31
2022-12-23T13:33:00.927Z,100163.94
2022-12-23T13:36:05.051Z,100166.34
2022-12-23T13:38:56.387Z,100178.22
2022-12-23T13:41:29.729Z,100172.28
2022-12-23T13:44:00.242Z,100175.72
2022-12-23T13:46:48.816Z,100176.69
2022-12-23T13:49:40.401Z,100170.69
2022-12-23T13:52:17.906Z,100168.09
2022-12-23T13:54:53.388Z,100166.25
2022-12-23T13:57:47.629Z,100165.31
2022-12-23T14:00:17.824Z,100161.56
2022-12-23T14:03:00.257Z,100169.69
2022-12-23T14:05:38.020Z,100185.41
2022-12-23T14:08:20.180Z,100187.47
2022-12-23T14:11:11.637Z,100175.59
2022-12-23T14:13:42.532Z,100173.84
2022-12-23T14:16:14.809Z,100180.53
2022-12-23T14:18:45.080Z,100181.66
2022-12-23T14:21:39.021Z,100175.13
2022-12-23T14:24:45.420Z,100174.84
2022-12-23T14:27:32.064Z,100178.59
2022-12-23T14:30:10.642Z,100187.59
2022-12-23T14:32:52.115Z,100186.28
2022-12-23T14:35:23.597Z,100190.06
2022-12-23T14:38:15.060Z,100186.09
2022-12-23T14:40:41.590Z,100180.78
2022-12-23T14:43:25.362Z,100176.25
2022-12-23T14:45:53.917Z,100165.41
2022-12-23T14:48:41.619Z,100171.69
2022-12-23T14:51:08.322Z,100193.63
2022-12-23T14:53:57.837Z,100190.97
2022-12-23T14:56:40.392Z,100194.31
2022-12-23T14:59:30.676Z,100199.97
2022-12-23T15:02:00.803Z,100200.75
2022-12-23T15:04:31.740Z,100194.44
2022-12-23T15:07:14.212Z,100191.41
2022-12-23T15:09:54.518Z,100186.28
2022-12-23T15:12:32.668Z,100184.75
2022-12-23T15:15:05.172Z,100181.94
2022-12-23T15:17:34.892Z,100187.63
2022-12-23T15:20:10.945Z,100184.53
2022-12-23T15:22:38.635Z,100182.78
2022-12-23T15:25:06.197Z,100192.44
2022-12-23T15:27:35.742Z,100192.13
2022-12-23T15:30:02.648Z,100189.91
2022-12-23T15:32:32.525Z,100190.06
2022-12-23T15:35:05.301Z,100194.78
2022-12-23T15:37:35.143Z,100182.03
2022-12-23T15:40:12.697Z,100170.69
2022-12-23T15:42:46.915Z,100179.94
2022-12-23T15:45:30.479Z,100183.78
2022-12-23T15:47:57.121Z,100176.75
2022-12-23T15:50:23.894Z,100169.44
2022-12-23T15:52:54.641Z,100173.19
2022-12-23T15:55:33.009Z,100179.03
2022-12-23T15:58:00.508Z,100189.00
2022-12-23T16:00:40.623Z,100194.97
2022-12-23T16:03:24.295Z,100189.34
2022-12-23T16:05:51.128Z,100193.75
2022-12-23T16:08:19.387Z,100192.41
2022-12-23T16:11:21.100Z,100195.50
2022-12-23T16:13:58.488Z,100188.28
2022-12-23T16:16:40.113Z,100197.97
2022-12-23T16:19:56.218Z,100199.25
2022-12-23T16:22:28.787Z,100196.38
2022-12-23T16:25:05.646Z,100194.31
2022-12-23T16:27:36.007Z,100176.41
2022-12-23T16:30:16.655Z,100183.03
2022-12-23T16:32:53.025Z,100182.22
2022-12-23T16:35:28.184Z,100187.69
2022-12-23T16:38:22.380Z,100180.59
2022-12-23T16:40:51.335Z,100183.13
2022-12-23T16:43:19.541Z,100181.63
2022-12-23T16:45:48.073Z,100177.59
2022-12-23T16:48:40.230Z,100176.41
2022-12-23T16:51:20.347Z,100162.28
2022-12-23T16:53:48.310Z,100163.09
2022-12-23T16:56:16.528Z,100144.69
2022-12-23T16:58:43.833Z,100157.28
2022-12-23T17:01:30.299Z,100164.31
2022-12-23T17:03:57.214Z,100162.53
2022-12-23T17:06:24.929Z,100151.72
2022-12-23T17:08:53.327Z,100146.25
2022-12-23T17:11:33.974Z,100142.81
2022-12-23T17:14:05.614Z,100153.59
2022-12-23T17:16:33.547Z,100141.41
2022-12-23T17:19:00.366Z,100135.63
2022-12-23T17:21:30.666Z,100132.06
2022-12-23T17:24:16.132Z,100129.63
2022-12-23T17:26:42.847Z,100130.81
2022-12-23T17:29:10.379Z,100126.13
2022-12-23T17:31:37.342Z,100114.03
2022-12-23T17:34:04.227Z,100106.94
2022-12-23T17:36:31.068Z,100110.47
2022-12-23T17:38:57.865Z,100102.97
2022-12-23T17:41:31.044Z,100107.22
2022-12-23T17:43:58.295Z,100096.13
2022-12-23T17:46:26.088Z,100089.00
2022-12-23T17:48:53.037Z,100100.56
2022-12-23T17:51:22.312Z,100084.31
2022-12-23T17:53:56.828Z,100084.13
2022-12-23T17:56:25.054Z,100087.75
2022-12-23T17:58:54.795Z,100085.50
2022-12-23T18:01:29.958Z,100087.41
2022-12-23T18:03:57.753Z,100084.13
2022-12-23T18:06:26.215Z,100076.75
2022-12-23T18:08:52.870Z,100080.22
2022-12-23T18:11:41.995Z,100080.41
2022-12-23T18:14:18.216Z,100087.16
2022-12-23T18:16:44.971Z,100077.06
2022-12-23T18:19:18.605Z,100090.28
2022-12-23T18:21:47.135Z,100085.06
2022-12-23T18:24:13.992Z,100084.75
2022-12-23T18:26:40.845Z,100090.34
2022-12-23T18:29:07.575Z,100089.88
2022-12-23T18:31:35.702Z,100096.53
2022-12-23T18:34:02.453Z,100096.13
2022-12-23T18:36:31.529Z,100092.09
2022-12-23T18:38:58.483Z,100090.59
2022-12-23T18:41:26.771Z,100091.34
2022-12-23T18:43:54.141Z,100090.78
2022-12-23T18:46:21.370Z,100093.00
2022-12-23T18:48:48.669Z,100086.22
2022-12-23T18:51:17.044Z,100088.75
2022-12-23T18:53:44.214Z,100087.97
2022-12-23T18:56:14.680Z,100069.16
2022-12-23T18:58:41.762Z,100082.41
2022-12-23T19:01:16.517Z,100080.84
2022-12-23T19:03:43.746Z,100078.03
2022-12-23T19:06:13.435Z,100066.47
2022-12-23T19:08:40.815Z,100073.44
2022-12-23T19:11:16.365Z,100061.78
2022-12-23T19:13:43.114Z,100064.13
2022-12-23T19:16:13.771Z,100059.63
2022-12-23T19:18:40.645Z,100063.72
2022-12-23T19:21:10.703Z,100052.97
2022-12-23T19:23:39.768Z,100055.03
2022-12-23T19:26:06.410Z,100054.00
2022-12-23T19:28:33.688Z,100053.16
2022-12-23T19:31:00.381Z,100052.38
2022-12-23T19:33:27.210Z,100058.91
2022-12-23T19:35:54.075Z,100055.19
2022-12-23T19:38:21.249Z,100051.50
2022-12-23T19:40:56.418Z,100057.13
2022-12-23T19:43:23.062Z,100045.09
2022-12-23T19:46:00.623Z,100040.94
2022-12-23T19:48:28.136Z,100048.19
2022-12-23T19:51:08.463Z,100053.84
2022-12-23T19:53:35.725Z,100043.69
2022-12-23T19:56:05.278Z,100035.38
2022-12-23T19:58:33.567Z,100045.91
2022-12-23T20:01:10.929Z,100035.03
2022-12-23T20:03:38.401Z,100036.06
2022-12-23T20:06:06.493Z,100036.25
2022-12-23T20:08:34.419Z,100028.50
2022-12-23T20:11:09.024Z,100025.63
2022-12-23T20:13:36.331Z,100020.97
2022-12-23T20:16:04.467Z,100009.44
2022-12-23T20:18:31.465Z,100011.97
2022-12-23T20:20:59.732Z,100006.69
2022-12-23T20:23:27.245Z,99995.19
2022-12-23T20:25:53.941Z,99994.19
2022-12-23T20:28:21.246Z,99997.19
2022-12-23T20:30:48.524Z,99990.91
2022-12-23T20:33:15.852Z,99984.53
2022-12-23T20:35:42.633Z,99983.72
2022-12-23T20:38:09.415Z,99978.41
2022-12-23T20:40:36.179Z,99975.19
2022-12-23T20:43:08.112Z,99978.28
2022-12-23T20:45:41.829Z,99968.47
2022-12-23T20:48:09.067Z,99979.91
2022-12-23T20:50:42.095Z,99989.06
2022-12-23T20:53:11.834Z,99993.13
2022-12-23T20:55:38.887Z,99991.66
2022-12-23T20:58:24.722Z,99990.91
2022-12-23T21:00:51.438Z,99997.44
2022-12-23T21:03:18.162Z,99997.66
2022-12-23T21:05:44.889Z,99994.78
2022-12-23T21:08:14.574Z,99999.19
2022-12-23T21:10:41.307Z,99987.94
2022-12-23T21:13:08.074Z,99997.78
2022-12-23T21:15:34.924Z,99998.75
2022-12-23T21:18:01.550Z,99996.44
2022-12-23T21:20:28.213Z,100000.50
2022-12-23T21:22:54.878Z,100001.13
2022-12-23T21:25:21.588Z,99996.88
2022-12-23T21:27:48.229Z,99990.78
2022-12-23T21:30:14.961Z,99991.75
2022-12-23T21:32:41.702Z,99980.78
2022-12-23T21:35:08.842Z,99976.44
2022-12-23T21:37:35.631Z,99989.25
2022-12-23T21:40:02.270Z,99982.31
2022-12-23T21:42:28.998Z,99981.16
2022-12-23T21:44:55.648Z,99971.19
2022-12-23T21:47:22.323Z,99968.59
2022-12-23T21:49:48.953Z,99966.81
2022-12-23T21:52:15.613Z,99968.41
2022-12-23T21:54:42.255Z,99967.75
2022-12-23T21:57:08.974Z,99966.91
2022-12-23T21:59:35.767Z,99962.94
2022-12-23T22:02:02.563Z,99964.59
2022-12-23T22:04:29.214Z,99955.47
2022-12-23T22:06:55.979Z,99948.31
2022-12-23T22:09:22.739Z,99944.81
2022-12-23T22:11:49.517Z,99952.94
2022-12-23T22:14:18.067Z,99954.97
2022-12-23T22:16:44.894Z,99958.75
2022-12-23T22:19:15.023Z,99964.00
2022-12-23T22:21:42.802Z,99958.69
2022-12-23T22:24:09.908Z,99957.75
2022-12-23T22:26:36.734Z,99952.75
2022-12-23T22:29:07.086Z,99949.38
2022-12-23T22:31:40.266Z,99949.59
2022-12-23T22:34:08.260Z,99943.91
2022-12-23T22:36:35.037Z,99951.19
2022-12-23T22:39:02.068Z,99950.47
2022-12-23T22:41:29.737Z,99947.00
2022-12-23T22:43:57.241Z,99944.38
2022-12-23T22:46:24.648Z,99942.50
2022-12-23T22:48:52.538Z,99944.25
2022-12-23T22:51:26.166Z,99938.06
2022-12-23T22:53:52.886Z,99937.19
2022-12-23T22:56:20.826Z,99944.97
2022-12-23T22:58:47.633Z,99944.88
2022-12-23T23:01:23.611Z,99945.16
2022-12-23T23:03:56.999Z,99952.03
2022-12-23T23:06:29.228Z,99952.84
2022-12-23T23:08:56.939Z,99941.59
2022-12-23T23:11:24.627Z,99947.03
2022-12-23T23:13:52.700Z,99950.38
2022-12-23T23:16:19.428Z,99956.38
2022-12-23T23:18:46.588Z,99945.75
2022-12-23T23:21:14.915Z,99957.56
2022-12-23T23:23:41.539Z,99956.69
2022-12-23T23:26:10.326Z,99947.94
2022-12-23T23:28:39.469Z,99957.91
2022-12-23T23:31:40.482Z,99953.34
2022-12-23T23:33:53.873Z,99959.56
2022-12-23T23:36:21.018Z,99963.47
2022-12-23T23:38:47.840Z,99969.78
2022-12-23T23:41:18.862Z,99972.63
2022-12-23T23:43:49.392Z,99970.78
2022-12-23T23:46:16.128Z,99968.72
2022-12-23T23:48:42.980Z,99973.06
2022-12-23T23:51:10.769Z,99969.19
2022-12-23T23:53:37.431Z,99965.47
2022-12-23T23:56:06.590Z,99971.06
2022-12-23T23:58:34.245Z,99975.34
